sensor_id;sensor_type;location;lat;lon;timestamp;temperature;humidity
57576;DHT22;43412;-33.800;150.804;2022-10-15T00:00:15;28.70;71.20
57576;DHT22;43412;-33.800;150.804;2022-10-15T00:02:42;28.90;72.30
57576;DHT22;43412;-33.800;150.804;2022-10-15T00:05:09;29.00;71.50
57576;DHT22;43412;-33.800;150.804;2022-10-15T00:07:35;29.00;71.40
57576;DHT22;43412;-33.800;150.804;2022-10-15T00:10:02;29.10;70.10
57576;DHT22;43412;-33.800;150.804;2022-10-15T00:12:29;28.70;71.10
57576;DHT22;43412;-33.800;150.804;2022-10-15T00:14:55;28.90;69.90
57576;DHT22;43412;-33.800;150.804;2022-10-15T00:17:22;29.00;72.30
57576;DHT22;43412;-33.800;150.804;2022-10-15T00:19:48;29.10;71.60
57576;DHT22;43412;-33.800;150.804;2022-10-15T00:22:15;28.90;72.80
57576;DHT22;43412;-33.800;150.804;2022-10-15T00:24:42;28.20;69.90
57576;DHT22;43412;-33.800;150.804;2022-10-15T00:27:09;27.30;70.60
57576;DHT22;43412;-33.800;150.804;2022-10-15T00:29:36;27.20;71.40
57576;DHT22;43412;-33.800;150.804;2022-10-15T00:32:02;27.40;70.90
57576;DHT22;43412;-33.800;150.804;2022-10-15T00:34:29;27.80;73.20
57576;DHT22;43412;-33.800;150.804;2022-10-15T00:36:56;28.50;72.60
57576;DHT22;43412;-33.800;150.804;2022-10-15T00:39:22;28.60;69.10
57576;DHT22;43412;-33.800;150.804;2022-10-15T00:41:49;28.90;70.00
57576;DHT22;43412;-33.800;150.804;2022-10-15T00:46:59;29.10;70.50
57576;DHT22;43412;-33.800;150.804;2022-10-15T00:49:27;29.10;69.50
57576;DHT22;43412;-33.800;150.804;2022-10-15T00:52:38;29.20;67.80
57576;DHT22;43412;-33.800;150.804;2022-10-15T00:54:47;29.10;69.50
57576;DHT22;43412;-33.800;150.804;2022-10-15T00:57:15;29.00;68.20
57576;DHT22;43412;-33.800;150.804;2022-10-15T00:59:43;28.90;66.00
57576;DHT22;43412;-33.800;150.804;2022-10-15T01:02:10;28.80;66.40
57576;DHT22;43412;-33.800;150.804;2022-10-15T01:04:36;28.50;64.60
57576;DHT22;43412;-33.800;150.804;2022-10-15T01:07:03;28.30;66.20
57576;DHT22;43412;-33.800;150.804;2022-10-15T01:09:30;27.90;66.10
57576;DHT22;43412;-33.800;150.804;2022-10-15T01:11:57;27.30;66.80
57576;DHT22;43412;-33.800;150.804;2022-10-15T01:14:27;27.40;68.10
57576;DHT22;43412;-33.800;150.804;2022-10-15T01:17:06;27.60;68.70
57576;DHT22;43412;-33.800;150.804;2022-10-15T01:27:40;28.10;66.80
57576;DHT22;43412;-33.800;150.804;2022-10-15T01:30:18;28.30;67.10
57576;DHT22;43412;-33.800;150.804;2022-10-15T01:35:50;28.80;69.50
57576;DHT22;43412;-33.800;150.804;2022-10-15T01:40:57;29.30;64.90
57576;DHT22;43412;-33.800;150.804;2022-10-15T01:43:34;28.90;65.10
57576;DHT22;43412;-33.800;150.804;2022-10-15T01:46:07;28.90;66.60
57576;DHT22;43412;-33.800;150.804;2022-10-15T01:48:37;28.90;66.00
57576;DHT22;43412;-33.800;150.804;2022-10-15T01:51:05;28.90;65.40
57576;DHT22;43412;-33.800;150.804;2022-10-15T01:53:32;28.80;65.80
57576;DHT22;43412;-33.800;150.804;2022-10-15T01:56:04;28.70;66.40
57576;DHT22;43412;-33.800;150.804;2022-10-15T01:58:31;28.70;68.90
57576;DHT22;43412;-33.800;150.804;2022-10-15T02:01:00;29.10;68.40
57576;DHT22;43412;-33.800;150.804;2022-10-15T02:03:27;29.40;68.30
57576;DHT22;43412;-33.800;150.804;2022-10-15T02:06:03;29.60;68.00
57576;DHT22;43412;-33.800;150.804;2022-10-15T02:11:15;29.90;67.30
57576;DHT22;43412;-33.800;150.804;2022-10-15T02:13:49;29.80;65.50
57576;DHT22;43412;-33.800;150.804;2022-10-15T02:18:51;29.20;66.40
57576;DHT22;43412;-33.800;150.804;2022-10-15T02:21:23;29.20;65.30
57576;DHT22;43412;-33.800;150.804;2022-10-15T02:23:53;29.30;66.10
57576;DHT22;43412;-33.800;150.804;2022-10-15T02:26:22;29.50;65.90
57576;DHT22;43412;-33.800;150.804;2022-10-15T02:28:53;29.30;65.90
57576;DHT22;43412;-33.800;150.804;2022-10-15T02:31:20;29.10;64.40
57576;DHT22;43412;-33.800;150.804;2022-10-15T02:33:48;29.10;66.50
57576;DHT22;43412;-33.800;150.804;2022-10-15T02:36:15;29.20;66.30
57576;DHT22;43412;-33.800;150.804;2022-10-15T02:38:43;29.10;66.30
57576;DHT22;43412;-33.800;150.804;2022-10-15T02:41:11;29.10;67.20
57576;DHT22;43412;-33.800;150.804;2022-10-15T02:43:38;29.40;65.10
57576;DHT22;43412;-33.800;150.804;2022-10-15T02:46:05;29.10;64.60
57576;DHT22;43412;-33.800;150.804;2022-10-15T02:48:33;28.90;66.10
57576;DHT22;43412;-33.800;150.804;2022-10-15T02:50:59;29.10;66.80
57576;DHT22;43412;-33.800;150.804;2022-10-15T02:53:26;29.30;68.20
57576;DHT22;43412;-33.800;150.804;2022-10-15T02:55:53;29.10;63.70
57576;DHT22;43412;-33.800;150.804;2022-10-15T02:58:19;28.80;64.80
57576;DHT22;43412;-33.800;150.804;2022-10-15T03:00:46;28.90;66.10
57576;DHT22;43412;-33.800;150.804;2022-10-15T03:03:13;28.90;65.20
57576;DHT22;43412;-33.800;150.804;2022-10-15T03:05:40;29.00;65.90
57576;DHT22;43412;-33.800;150.804;2022-10-15T03:08:07;29.30;66.40
57576;DHT22;43412;-33.800;150.804;2022-10-15T03:10:34;29.10;65.10
57576;DHT22;43412;-33.800;150.804;2022-10-15T03:13:01;29.20;65.10
57576;DHT22;43412;-33.800;150.804;2022-10-15T03:15:28;29.50;66.30
57576;DHT22;43412;-33.800;150.804;2022-10-15T03:17:54;29.70;65.40
57576;DHT22;43412;-33.800;150.804;2022-10-15T03:20:21;29.70;64.70
57576;DHT22;43412;-33.800;150.804;2022-10-15T03:22:48;29.70;65.00
57576;DHT22;43412;-33.800;150.804;2022-10-15T03:25:14;29.70;66.20
57576;DHT22;43412;-33.800;150.804;2022-10-15T03:27:41;29.80;65.40
57576;DHT22;43412;-33.800;150.804;2022-10-15T03:30:08;30.10;69.10
57576;DHT22;43412;-33.800;150.804;2022-10-15T03:32:35;30.30;68.70
57576;DHT22;43412;-33.800;150.804;2022-10-15T03:35:01;30.60;68.30
57576;DHT22;43412;-33.800;150.804;2022-10-15T03:37:28;30.80;68.90
57576;DHT22;43412;-33.800;150.804;2022-10-15T03:39:55;31.00;68.90
57576;DHT22;43412;-33.800;150.804;2022-10-15T03:42:21;31.10;67.20
57576;DHT22;43412;-33.800;150.804;2022-10-15T03:44:48;31.10;67.50
57576;DHT22;43412;-33.800;150.804;2022-10-15T03:47:15;31.00;64.00
57576;DHT22;43412;-33.800;150.804;2022-10-15T03:49:42;30.80;63.50
57576;DHT22;43412;-33.800;150.804;2022-10-15T03:52:08;30.60;66.10
57576;DHT22;43412;-33.800;150.804;2022-10-15T03:54:35;30.50;66.20
57576;DHT22;43412;-33.800;150.804;2022-10-15T03:57:02;30.50;66.00
57576;DHT22;43412;-33.800;150.804;2022-10-15T03:59:28;30.40;65.10
57576;DHT22;43412;-33.800;150.804;2022-10-15T04:01:58;30.40;68.00
57576;DHT22;43412;-33.800;150.804;2022-10-15T04:04:25;30.40;65.50
57576;DHT22;43412;-33.800;150.804;2022-10-15T04:06:51;30.30;65.20
57576;DHT22;43412;-33.800;150.804;2022-10-15T04:09:18;30.10;63.70
57576;DHT22;43412;-33.800;150.804;2022-10-15T04:11:45;29.40;62.80
57576;DHT22;43412;-33.800;150.804;2022-10-15T04:14:11;28.90;64.40
57576;DHT22;43412;-33.800;150.804;2022-10-15T04:16:38;28.80;67.30
57576;DHT22;43412;-33.800;150.804;2022-10-15T04:19:04;28.50;65.40
57576;DHT22;43412;-33.800;150.804;2022-10-15T04:21:31;28.30;64.60
57576;DHT22;43412;-33.800;150.804;2022-10-15T04:23:58;28.30;65.50
57576;DHT22;43412;-33.800;150.804;2022-10-15T04:26:24;28.40;66.00
57576;DHT22;43412;-33.800;150.804;2022-10-15T04:28:51;28.50;66.60
57576;DHT22;43412;-33.800;150.804;2022-10-15T04:31:18;28.80;67.60
57576;DHT22;43412;-33.800;150.804;2022-10-15T04:33:46;28.90;64.50
57576;DHT22;43412;-33.800;150.804;2022-10-15T04:36:13;28.90;65.50
57576;DHT22;43412;-33.800;150.804;2022-10-15T04:38:40;28.90;65.10
57576;DHT22;43412;-33.800;150.804;2022-10-15T04:41:08;28.70;64.20
57576;DHT22;43412;-33.800;150.804;2022-10-15T04:43:35;28.60;66.10
57576;DHT22;43412;-33.800;150.804;2022-10-15T04:46:03;28.60;66.90
57576;DHT22;43412;-33.800;150.804;2022-10-15T04:48:31;28.60;66.20
57576;DHT22;43412;-33.800;150.804;2022-10-15T04:53:53;28.50;65.50
57576;DHT22;43412;-33.800;150.804;2022-10-15T04:56:20;28.40;64.80
57576;DHT22;43412;-33.800;150.804;2022-10-15T04:58:48;28.20;64.60
57576;DHT22;43412;-33.800;150.804;2022-10-15T05:01:18;27.80;64.40
57576;DHT22;43412;-33.800;150.804;2022-10-15T05:03:45;27.60;65.60
57576;DHT22;43412;-33.800;150.804;2022-10-15T05:06:13;27.50;66.10
57576;DHT22;43412;-33.800;150.804;2022-10-15T05:08:40;27.50;66.30
57576;DHT22;43412;-33.800;150.804;2022-10-15T05:11:18;27.60;65.90
57576;DHT22;43412;-33.800;150.804;2022-10-15T05:13:45;27.80;68.30
57576;DHT22;43412;-33.800;150.804;2022-10-15T05:16:19;27.80;66.90
57576;DHT22;43412;-33.800;150.804;2022-10-15T05:18:47;27.90;68.80
57576;DHT22;43412;-33.800;150.804;2022-10-15T05:21:14;28.00;69.30
57576;DHT22;43412;-33.800;150.804;2022-10-15T05:23:41;28.00;69.50
57576;DHT22;43412;-33.800;150.804;2022-10-15T05:26:13;27.80;68.30
57576;DHT22;43412;-33.800;150.804;2022-10-15T05:28:40;27.60;70.60
57576;DHT22;43412;-33.800;150.804;2022-10-15T05:31:08;27.40;71.40
57576;DHT22;43412;-33.800;150.804;2022-10-15T05:33:35;27.30;71.80
57576;DHT22;43412;-33.800;150.804;2022-10-15T05:36:09;27.10;72.20
57576;DHT22;43412;-33.800;150.804;2022-10-15T05:38:36;27.00;72.20
57576;DHT22;43412;-33.800;150.804;2022-10-15T05:41:03;26.80;73.00
57576;DHT22;43412;-33.800;150.804;2022-10-15T05:43:30;26.60;73.70
57576;DHT22;43412;-33.800;150.804;2022-10-15T05:45:56;26.50;73.40
57576;DHT22;43412;-33.800;150.804;2022-10-15T05:48:23;26.50;73.80
57576;DHT22;43412;-33.800;150.804;2022-10-15T05:50:50;26.30;73.50
57576;DHT22;43412;-33.800;150.804;2022-10-15T05:53:16;26.20;74.30
57576;DHT22;43412;-33.800;150.804;2022-10-15T05:55:43;26.00;74.70
57576;DHT22;43412;-33.800;150.804;2022-10-15T05:58:10;25.90;74.50
57576;DHT22;43412;-33.800;150.804;2022-10-15T06:00:36;25.70;75.50
57576;DHT22;43412;-33.800;150.804;2022-10-15T06:03:04;25.60;75.70
57576;DHT22;43412;-33.800;150.804;2022-10-15T06:05:31;25.30;75.80
57576;DHT22;43412;-33.800;150.804;2022-10-15T06:07:58;25.20;76.50
57576;DHT22;43412;-33.800;150.804;2022-10-15T06:10:25;25.10;77.60
57576;DHT22;43412;-33.800;150.804;2022-10-15T06:12:53;25.00;77.60
57576;DHT22;43412;-33.800;150.804;2022-10-15T06:15:20;24.90;78.10
57576;DHT22;43412;-33.800;150.804;2022-10-15T06:17:47;24.90;78.80
57576;DHT22;43412;-33.800;150.804;2022-10-15T06:20:13;24.70;79.40
57576;DHT22;43412;-33.800;150.804;2022-10-15T06:22:40;24.60;79.70
57576;DHT22;43412;-33.800;150.804;2022-10-15T06:25:07;24.50;80.50
57576;DHT22;43412;-33.800;150.804;2022-10-15T06:27:33;24.50;80.10
57576;DHT22;43412;-33.800;150.804;2022-10-15T06:30:00;24.30;80.60
57576;DHT22;43412;-33.800;150.804;2022-10-15T06:32:27;24.20;81.20
57576;DHT22;43412;-33.800;150.804;2022-10-15T06:34:53;24.10;80.50
57576;DHT22;43412;-33.800;150.804;2022-10-15T06:37:20;24.00;80.90
57576;DHT22;43412;-33.800;150.804;2022-10-15T06:39:47;23.90;80.60
57576;DHT22;43412;-33.800;150.804;2022-10-15T06:42:13;23.90;80.90
57576;DHT22;43412;-33.800;150.804;2022-10-15T06:44:40;23.80;81.20
57576;DHT22;43412;-33.800;150.804;2022-10-15T06:47:07;23.80;82.00
57576;DHT22;43412;-33.800;150.804;2022-10-15T06:49:33;23.70;81.80
57576;DHT22;43412;-33.800;150.804;2022-10-15T06:52:00;23.60;82.00
57576;DHT22;43412;-33.800;150.804;2022-10-15T06:54:27;23.50;81.90
57576;DHT22;43412;-33.800;150.804;2022-10-15T06:56:53;23.40;81.80
57576;DHT22;43412;-33.800;150.804;2022-10-15T06:59:20;23.20;82.20
57576;DHT22;43412;-33.800;150.804;2022-10-15T07:01:47;23.10;82.90
57576;DHT22;43412;-33.800;150.804;2022-10-15T07:04:13;23.00;83.30
57576;DHT22;43412;-33.800;150.804;2022-10-15T07:06:40;23.00;83.50
57576;DHT22;43412;-33.800;150.804;2022-10-15T07:09:07;22.90;83.70
57576;DHT22;43412;-33.800;150.804;2022-10-15T07:11:33;22.80;84.00
57576;DHT22;43412;-33.800;150.804;2022-10-15T07:14:00;22.70;84.00
57576;DHT22;43412;-33.800;150.804;2022-10-15T07:16:27;22.60;84.90
57576;DHT22;43412;-33.800;150.804;2022-10-15T07:18:54;22.50;85.60
57576;DHT22;43412;-33.800;150.804;2022-10-15T07:21:20;22.40;85.70
57576;DHT22;43412;-33.800;150.804;2022-10-15T07:23:47;22.40;85.50
57576;DHT22;43412;-33.800;150.804;2022-10-15T07:26:13;22.20;85.60
57576;DHT22;43412;-33.800;150.804;2022-10-15T07:28:40;22.10;85.90
57576;DHT22;43412;-33.800;150.804;2022-10-15T07:31:07;22.00;86.10
57576;DHT22;43412;-33.800;150.804;2022-10-15T07:33:34;22.00;86.40
57576;DHT22;43412;-33.800;150.804;2022-10-15T07:36:04;21.90;86.50
57576;DHT22;43412;-33.800;150.804;2022-10-15T07:38:32;21.80;86.80
57576;DHT22;43412;-33.800;150.804;2022-10-15T07:40:59;21.60;87.20
57576;DHT22;43412;-33.800;150.804;2022-10-15T07:43:26;21.60;87.50
57576;DHT22;43412;-33.800;150.804;2022-10-15T07:45:53;21.40;87.70
57576;DHT22;43412;-33.800;150.804;2022-10-15T07:48:21;21.40;87.90
57576;DHT22;43412;-33.800;150.804;2022-10-15T07:50:57;21.30;88.00
57576;DHT22;43412;-33.800;150.804;2022-10-15T07:53:24;21.20;88.60
57576;DHT22;43412;-33.800;150.804;2022-10-15T07:55:51;21.10;89.00
57576;DHT22;43412;-33.800;150.804;2022-10-15T07:58:18;21.00;89.40
57576;DHT22;43412;-33.800;150.804;2022-10-15T08:00:45;21.00;90.00
57576;DHT22;43412;-33.800;150.804;2022-10-15T08:03:11;20.90;90.10
57576;DHT22;43412;-33.800;150.804;2022-10-15T08:05:38;20.80;90.10
57576;DHT22;43412;-33.800;150.804;2022-10-15T08:08:05;20.80;90.30
57576;DHT22;43412;-33.800;150.804;2022-10-15T08:10:31;20.70;90.20
57576;DHT22;43412;-33.800;150.804;2022-10-15T08:12:58;20.60;90.50
57576;DHT22;43412;-33.800;150.804;2022-10-15T08:15:24;20.60;90.50
57576;DHT22;43412;-33.800;150.804;2022-10-15T08:17:51;20.50;90.60
57576;DHT22;43412;-33.800;150.804;2022-10-15T08:20:18;20.40;90.80
57576;DHT22;43412;-33.800;150.804;2022-10-15T08:22:45;20.30;90.90
57576;DHT22;43412;-33.800;150.804;2022-10-15T08:25:11;20.20;91.00
57576;DHT22;43412;-33.800;150.804;2022-10-15T08:27:38;20.10;91.10
57576;DHT22;43412;-33.800;150.804;2022-10-15T08:30:05;20.00;91.30
57576;DHT22;43412;-33.800;150.804;2022-10-15T08:32:31;19.90;91.50
57576;DHT22;43412;-33.800;150.804;2022-10-15T08:34:58;19.90;91.50
57576;DHT22;43412;-33.800;150.804;2022-10-15T08:37:25;19.70;91.60
57576;DHT22;43412;-33.800;150.804;2022-10-15T08:39:51;19.70;91.80
57576;DHT22;43412;-33.800;150.804;2022-10-15T08:42:22;19.60;92.10
57576;DHT22;43412;-33.800;150.804;2022-10-15T08:44:54;19.60;92.10
57576;DHT22;43412;-33.800;150.804;2022-10-15T08:49:53;19.40;92.30
57576;DHT22;43412;-33.800;150.804;2022-10-15T08:55:02;19.30;92.50
57576;DHT22;43412;-33.800;150.804;2022-10-15T08:57:45;19.20;92.90
57576;DHT22;43412;-33.800;150.804;2022-10-15T09:05:20;18.90;93.50
57576;DHT22;43412;-33.800;150.804;2022-10-15T09:07:50;18.90;93.60
57576;DHT22;43412;-33.800;150.804;2022-10-15T09:12:57;18.70;93.80
57576;DHT22;43412;-33.800;150.804;2022-10-15T09:15:25;18.70;94.10
57576;DHT22;43412;-33.800;150.804;2022-10-15T09:17:53;18.60;94.30
57576;DHT22;43412;-33.800;150.804;2022-10-15T09:20:24;18.50;94.50
57576;DHT22;43412;-33.800;150.804;2022-10-15T09:22:51;18.40;94.70
57576;DHT22;43412;-33.800;150.804;2022-10-15T09:25:19;18.40;94.90
57576;DHT22;43412;-33.800;150.804;2022-10-15T09:27:47;18.30;95.10
57576;DHT22;43412;-33.800;150.804;2022-10-15T09:30:25;18.30;95.30
57576;DHT22;43412;-33.800;150.804;2022-10-15T09:35:46;18.10;95.60
57576;DHT22;43412;-33.800;150.804;2022-10-15T09:43:42;17.90;96.50
57576;DHT22;43412;-33.800;150.804;2022-10-15T09:46:10;17.90;96.70
57576;DHT22;43412;-33.800;150.804;2022-10-15T09:48:46;17.90;96.90
57576;DHT22;43412;-33.800;150.804;2022-10-15T09:54:00;17.90;97.20
57576;DHT22;43412;-33.800;150.804;2022-10-15T09:56:35;17.90;97.30
57576;DHT22;43412;-33.800;150.804;2022-10-15T09:59:03;18.00;97.20
57576;DHT22;43412;-33.800;150.804;2022-10-15T10:01:30;17.90;97.40
57576;DHT22;43412;-33.800;150.804;2022-10-15T10:06:43;17.90;97.40
57576;DHT22;43412;-33.800;150.804;2022-10-15T10:09:15;17.80;97.60
57576;DHT22;43412;-33.800;150.804;2022-10-15T10:11:46;17.80;97.60
57576;DHT22;43412;-33.800;150.804;2022-10-15T10:14:24;17.70;97.70
57576;DHT22;43412;-33.800;150.804;2022-10-15T10:17:05;17.60;98.00
57576;DHT22;43412;-33.800;150.804;2022-10-15T10:19:32;17.60;98.30
57576;DHT22;43412;-33.800;150.804;2022-10-15T10:22:06;17.50;98.70
57576;DHT22;43412;-33.800;150.804;2022-10-15T10:24:38;17.40;98.80
57576;DHT22;43412;-33.800;150.804;2022-10-15T10:27:11;17.40;99.00
57576;DHT22;43412;-33.800;150.804;2022-10-15T10:29:45;17.30;99.20
57576;DHT22;43412;-33.800;150.804;2022-10-15T10:32:20;17.20;99.60
57576;DHT22;43412;-33.800;150.804;2022-10-15T10:34:48;17.20;99.80
57576;DHT22;43412;-33.800;150.804;2022-10-15T10:37:15;17.10;99.90
57576;DHT22;43412;-33.800;150.804;2022-10-15T10:39:41;17.10;99.90
57576;DHT22;43412;-33.800;150.804;2022-10-15T10:42:51;17.10;99.90
57576;DHT22;43412;-33.800;150.804;2022-10-15T10:48:14;17.20;99.90
57576;DHT22;43412;-33.800;150.804;2022-10-15T10:50:42;17.30;99.90
57576;DHT22;43412;-33.800;150.804;2022-10-15T10:53:22;17.40;99.90
57576;DHT22;43412;-33.800;150.804;2022-10-15T10:55:50;17.50;99.90
57576;DHT22;43412;-33.800;150.804;2022-10-15T10:58:18;17.50;99.90
57576;DHT22;43412;-33.800;150.804;2022-10-15T11:00:47;17.60;99.90
57576;DHT22;43412;-33.800;150.804;2022-10-15T11:03:30;17.60;99.90
57576;DHT22;43412;-33.800;150.804;2022-10-15T11:11:25;17.70;99.90
57576;DHT22;43412;-33.800;150.804;2022-10-15T11:14:01;17.70;99.90
57576;DHT22;43412;-33.800;150.804;2022-10-15T11:16:54;17.70;99.90
57576;DHT22;43412;-33.800;150.804;2022-10-15T11:19:37;17.70;99.90
57576;DHT22;43412;-33.800;150.804;2022-10-15T11:30:12;17.60;99.90
57576;DHT22;43412;-33.800;150.804;2022-10-15T11:32:58;17.50;99.90
57576;DHT22;43412;-33.800;150.804;2022-10-15T11:56:30;17.30;99.90
57576;DHT22;43412;-33.800;150.804;2022-10-15T12:01:37;17.30;99.90
57576;DHT22;43412;-33.800;150.804;2022-10-15T12:04:05;17.30;99.90
57576;DHT22;43412;-33.800;150.804;2022-10-15T12:06:36;17.30;99.90
57576;DHT22;43412;-33.800;150.804;2022-10-15T12:09:05;17.30;99.90
57576;DHT22;43412;-33.800;150.804;2022-10-15T12:16:55;17.40;99.90
57576;DHT22;43412;-33.800;150.804;2022-10-15T12:19:25;17.40;99.90
57576;DHT22;43412;-33.800;150.804;2022-10-15T12:29:45;17.50;99.90
57576;DHT22;43412;-33.800;150.804;2022-10-15T12:32:22;17.50;99.90
57576;DHT22;43412;-33.800;150.804;2022-10-15T12:34:56;17.60;99.90
57576;DHT22;43412;-33.800;150.804;2022-10-15T12:37:24;17.60;99.90
57576;DHT22;43412;-33.800;150.804;2022-10-15T12:39:58;17.60;99.90
57576;DHT22;43412;-33.800;150.804;2022-10-15T12:42:27;17.70;99.90
57576;DHT22;43412;-33.800;150.804;2022-10-15T12:44:54;17.70;99.90
57576;DHT22;43412;-33.800;150.804;2022-10-15T12:50:15;17.70;99.90
57576;DHT22;43412;-33.800;150.804;2022-10-15T12:52:53;17.70;99.90
57576;DHT22;43412;-33.800;150.804;2022-10-15T12:55:22;17.70;99.90
57576;DHT22;43412;-33.800;150.804;2022-10-15T12:57:50;17.70;99.90
57576;DHT22;43412;-33.800;150.804;2022-10-15T13:02:54;17.70;99.90
57576;DHT22;43412;-33.800;150.804;2022-10-15T13:05:30;17.70;99.90
57576;DHT22;43412;-33.800;150.804;2022-10-15T13:07:58;17.70;99.90
57576;DHT22;43412;-33.800;150.804;2022-10-15T13:10:27;17.70;99.90
57576;DHT22;43412;-33.800;150.804;2022-10-15T13:12:58;17.70;99.90
57576;DHT22;43412;-33.800;150.804;2022-10-15T13:15:27;17.70;99.90
57576;DHT22;43412;-33.800;150.804;2022-10-15T13:17:55;17.70;99.90
57576;DHT22;43412;-33.800;150.804;2022-10-15T13:20:29;17.70;99.90
57576;DHT22;43412;-33.800;150.804;2022-10-15T13:26:09;17.60;99.90
57576;DHT22;43412;-33.800;150.804;2022-10-15T13:28:37;17.60;99.90
57576;DHT22;43412;-33.800;150.804;2022-10-15T13:31:21;17.50;99.90
57576;DHT22;43412;-33.800;150.804;2022-10-15T13:33:53;17.50;99.90
57576;DHT22;43412;-33.800;150.804;2022-10-15T13:36:25;17.50;99.90
57576;DHT22;43412;-33.800;150.804;2022-10-15T13:38:54;17.40;99.90
57576;DHT22;43412;-33.800;150.804;2022-10-15T13:41:25;17.40;99.90
57576;DHT22;43412;-33.800;150.804;2022-10-15T13:43:52;17.40;99.90
57576;DHT22;43412;-33.800;150.804;2022-10-15T13:46:24;17.40;99.90
57576;DHT22;43412;-33.800;150.804;2022-10-15T13:49:02;17.30;99.90
57576;DHT22;43412;-33.800;150.804;2022-10-15T13:51:33;17.30;99.90
57576;DHT22;43412;-33.800;150.804;2022-10-15T13:54:01;17.30;99.90
57576;DHT22;43412;-33.800;150.804;2022-10-15T13:56:28;17.30;99.90
57576;DHT22;43412;-33.800;150.804;2022-10-15T13:58:56;17.30;99.90
57576;DHT22;43412;-33.800;150.804;2022-10-15T14:01:24;17.30;99.90
57576;DHT22;43412;-33.800;150.804;2022-10-15T14:03:54;17.30;99.90
57576;DHT22;43412;-33.800;150.804;2022-10-15T14:06:34;17.30;99.90
57576;DHT22;43412;-33.800;150.804;2022-10-15T14:09:18;17.30;99.90
57576;DHT22;43412;-33.800;150.804;2022-10-15T14:11:48;17.30;99.90
57576;DHT22;43412;-33.800;150.804;2022-10-15T14:14:32;17.30;99.90
57576;DHT22;43412;-33.800;150.804;2022-10-15T14:16:59;17.30;99.90
57576;DHT22;43412;-33.800;150.804;2022-10-15T14:19:26;17.20;99.90
57576;DHT22;43412;-33.800;150.804;2022-10-15T14:21:57;17.20;99.90
57576;DHT22;43412;-33.800;150.804;2022-10-15T14:26:59;17.20;99.90
57576;DHT22;43412;-33.800;150.804;2022-10-15T14:29:27;17.20;99.90
57576;DHT22;43412;-33.800;150.804;2022-10-15T14:31:54;17.20;99.90
57576;DHT22;43412;-33.800;150.804;2022-10-15T14:37:42;17.20;99.90
57576;DHT22;43412;-33.800;150.804;2022-10-15T14:39:49;17.20;99.90
57576;DHT22;43412;-33.800;150.804;2022-10-15T14:42:25;17.10;99.90
57576;DHT22;43412;-33.800;150.804;2022-10-15T14:44:52;17.10;99.90
57576;DHT22;43412;-33.800;150.804;2022-10-15T14:47:21;17.00;99.90
57576;DHT22;43412;-33.800;150.804;2022-10-15T14:49:50;17.00;99.90
57576;DHT22;43412;-33.800;150.804;2022-10-15T14:52:17;17.00;99.90
57576;DHT22;43412;-33.800;150.804;2022-10-15T14:54:46;17.00;99.90
57576;DHT22;43412;-33.800;150.804;2022-10-15T14:57:25;16.90;99.90
57576;DHT22;43412;-33.800;150.804;2022-10-15T14:59:53;16.90;99.90
57576;DHT22;43412;-33.800;150.804;2022-10-15T15:02:21;16.90;99.90
57576;DHT22;43412;-33.800;150.804;2022-10-15T15:05:03;16.90;99.90
57576;DHT22;43412;-33.800;150.804;2022-10-15T15:07:31;16.90;99.90
57576;DHT22;43412;-33.800;150.804;2022-10-15T15:09:58;16.80;99.90
57576;DHT22;43412;-33.800;150.804;2022-10-15T15:12:25;16.80;99.90
57576;DHT22;43412;-33.800;150.804;2022-10-15T15:14:52;16.80;99.90
57576;DHT22;43412;-33.800;150.804;2022-10-15T15:17:20;16.80;99.90
57576;DHT22;43412;-33.800;150.804;2022-10-15T15:19:47;16.80;99.90
57576;DHT22;43412;-33.800;150.804;2022-10-15T15:22:16;16.80;99.90
57576;DHT22;43412;-33.800;150.804;2022-10-15T15:24:44;16.80;99.90
57576;DHT22;43412;-33.800;150.804;2022-10-15T15:27:24;16.80;99.90
57576;DHT22;43412;-33.800;150.804;2022-10-15T15:29:53;16.70;99.90
57576;DHT22;43412;-33.800;150.804;2022-10-15T15:32:20;16.70;99.90
57576;DHT22;43412;-33.800;150.804;2022-10-15T15:34:47;16.70;99.90
57576;DHT22;43412;-33.800;150.804;2022-10-15T15:37:15;16.70;99.90
57576;DHT22;43412;-33.800;150.804;2022-10-15T15:39:42;16.70;99.90
57576;DHT22;43412;-33.800;150.804;2022-10-15T15:42:19;16.70;99.90
57576;DHT22;43412;-33.800;150.804;2022-10-15T15:44:46;16.70;99.90
57576;DHT22;43412;-33.800;150.804;2022-10-15T15:47:12;16.70;99.90
57576;DHT22;43412;-33.800;150.804;2022-10-15T15:49:39;16.70;99.90
57576;DHT22;43412;-33.800;150.804;2022-10-15T15:52:09;16.70;99.90
57576;DHT22;43412;-33.800;150.804;2022-10-15T15:54:41;16.70;99.90
57576;DHT22;43412;-33.800;150.804;2022-10-15T15:57:09;16.70;99.90
57576;DHT22;43412;-33.800;150.804;2022-10-15T15:59:36;16.60;99.90
57576;DHT22;43412;-33.800;150.804;2022-10-15T16:02:03;16.60;99.90
57576;DHT22;43412;-33.800;150.804;2022-10-15T16:04:29;16.60;99.90
57576;DHT22;43412;-33.800;150.804;2022-10-15T16:06:56;16.60;99.90
57576;DHT22;43412;-33.800;150.804;2022-10-15T16:09:23;16.60;99.90
57576;DHT22;43412;-33.800;150.804;2022-10-15T16:11:52;16.60;99.90
57576;DHT22;43412;-33.800;150.804;2022-10-15T16:14:18;16.50;99.90
57576;DHT22;43412;-33.800;150.804;2022-10-15T16:16:45;16.50;99.90
57576;DHT22;43412;-33.800;150.804;2022-10-15T16:19:12;16.50;99.90
57576;DHT22;43412;-33.800;150.804;2022-10-15T16:21:39;16.40;99.90
57576;DHT22;43412;-33.800;150.804;2022-10-15T16:24:05;16.40;99.90
57576;DHT22;43412;-33.800;150.804;2022-10-15T16:26:32;16.40;99.90
57576;DHT22;43412;-33.800;150.804;2022-10-15T16:28:59;16.40;99.90
57576;DHT22;43412;-33.800;150.804;2022-10-15T16:31:26;16.40;99.90
57576;DHT22;43412;-33.800;150.804;2022-10-15T16:34:02;16.40;99.90
57576;DHT22;43412;-33.800;150.804;2022-10-15T16:36:29;16.40;99.90
57576;DHT22;43412;-33.800;150.804;2022-10-15T16:38:55;16.30;99.90
57576;DHT22;43412;-33.800;150.804;2022-10-15T16:41:22;16.30;99.90
57576;DHT22;43412;-33.800;150.804;2022-10-15T16:43:49;16.30;99.90
57576;DHT22;43412;-33.800;150.804;2022-10-15T16:46:16;16.40;99.90
57576;DHT22;43412;-33.800;150.804;2022-10-15T16:48:43;16.40;99.90
57576;DHT22;43412;-33.800;150.804;2022-10-15T16:51:11;16.40;99.90
57576;DHT22;43412;-33.800;150.804;2022-10-15T16:53:38;16.40;99.90
57576;DHT22;43412;-33.800;150.804;2022-10-15T16:56:10;16.40;99.90